createdAt,value
2018-08-09T00:00:23.970Z,6.32
2018-08-09T00:02:53.853Z,6.40
2018-08-09T00:05:24.052Z,7.03
2018-08-09T00:07:52.799Z,6.75
2018-08-09T00:10:21.439Z,6.97
2018-08-09T00:12:50.247Z,7.18
2018-08-09T00:18:06.793Z,6.90
2018-08-09T00:20:35.682Z,6.90
2018-08-09T00:23:04.437Z,7.43
2018-08-09T00:25:34.670Z,7.57
2018-08-09T00:28:03.366Z,7.40
2018-08-09T00:30:32.344Z,7.78
2018-08-09T00:33:01.266Z,7.80
2018-08-09T00:35:30.026Z,7.95
2018-08-09T00:37:58.815Z,7.85
2018-08-09T00:40:27.542Z,7.87
2018-08-09T00:42:56.240Z,8.82
2018-08-09T00:45:24.986Z,7.87
2018-08-09T00:47:53.641Z,8.25
2018-08-09T00:50:22.295Z,8.13
2018-08-09T00:52:58.723Z,8.45
2018-08-09T00:55:27.773Z,8.15
2018-08-09T00:57:57.642Z,9.23
2018-08-09T01:00:27.364Z,8.63
2018-08-09T01:02:55.798Z,9.25
2018-08-09T01:05:24.630Z,9.35
2018-08-09T01:07:54.187Z,8.35
2018-08-09T01:18:46.586Z,9.52
2018-08-09T01:21:16.233Z,10.30
2018-08-09T01:23:52.640Z,9.20
2018-08-09T01:26:28.942Z,9.25
2018-08-09T01:29:13.862Z,9.35
2018-08-09T01:31:42.446Z,9.48
2018-08-09T01:34:11.128Z,9.60
2018-08-09T01:36:39.923Z,10.05
2018-08-09T01:39:08.720Z,10.13
2018-08-09T01:41:37.368Z,10.05
2018-08-09T01:44:06.424Z,10.43
2018-08-09T01:46:35.111Z,10.57
2018-08-09T01:49:03.849Z,10.65
2018-08-09T01:51:32.562Z,11.55
2018-08-09T01:54:01.349Z,11.23
2018-08-09T01:56:30.009Z,11.68
2018-08-09T02:01:46.265Z,11.02
2018-08-09T02:04:15.540Z,12.40
2018-08-09T02:06:44.265Z,12.30
2018-08-09T02:09:13.170Z,11.63
2018-08-09T02:11:42.204Z,11.15
2018-08-09T02:20:09.714Z,12.85
2018-08-09T02:28:39.526Z,12.65
2018-08-09T02:33:55.931Z,12.57
2018-08-09T02:39:13.218Z,12.93
2018-08-09T02:41:41.916Z,12.82
2018-08-09T02:44:10.550Z,13.30
2018-08-09T02:46:39.362Z,13.13
2018-08-09T02:49:07.968Z,13.68
2018-08-09T02:51:40.010Z,13.93
2018-08-09T02:54:09.021Z,13.38
2018-08-09T02:56:38.076Z,13.18
2018-08-09T02:59:07.119Z,13.88
2018-08-09T03:01:36.230Z,14.05
2018-08-09T03:04:05.793Z,13.62
2018-08-09T03:06:34.778Z,14.65
2018-08-09T03:09:04.895Z,13.93
2018-08-09T03:11:33.662Z,13.93
2018-08-09T03:14:05.137Z,13.68
2018-08-09T03:16:33.888Z,14.00
2018-08-09T03:19:04.125Z,14.98
2018-08-09T03:21:32.823Z,13.93
2018-08-09T03:24:01.817Z,14.15
2018-08-09T03:26:30.541Z,14.63
2018-08-09T03:28:59.383Z,14.20
2018-08-09T03:34:22.875Z,14.63
2018-08-09T03:36:51.824Z,14.95
2018-08-09T03:39:21.234Z,15.57
2018-08-09T03:41:50.135Z,15.88
2018-08-09T03:44:19.118Z,15.45
2018-08-09T03:46:48.240Z,15.45
2018-08-09T03:49:17.186Z,16.20
2018-08-09T03:51:46.366Z,15.38
2018-08-09T03:54:15.444Z,17.12
2018-08-09T03:56:44.396Z,15.50
2018-08-09T03:59:13.131Z,16.45
2018-08-09T04:01:42.800Z,16.10
2018-08-09T04:04:11.435Z,15.60
2018-08-09T04:06:40.155Z,16.37
2018-08-09T04:09:09.126Z,14.82
2018-08-09T04:11:38.412Z,16.20
2018-08-09T04:14:06.936Z,16.35
2018-08-09T04:19:25.033Z,16.35
2018-08-09T04:22:04.028Z,16.62
2018-08-09T04:24:34.241Z,16.15
2018-08-09T04:27:04.380Z,16.00
2018-08-09T04:29:33.104Z,15.55
2018-08-09T04:32:02.413Z,17.00
2018-08-09T04:34:31.298Z,16.02
2018-08-09T04:37:00.647Z,15.82
2018-08-09T04:39:29.546Z,15.30
2018-08-09T04:41:58.535Z,16.10
2018-08-09T04:44:27.805Z,17.15
2018-08-09T04:46:56.988Z,16.70
2018-08-09T04:49:26.060Z,16.30
2018-08-09T04:51:56.367Z,15.35
2018-08-09T04:54:25.283Z,15.63
2018-08-09T04:56:53.864Z,15.93
2018-08-09T04:59:22.601Z,16.40
2018-08-09T05:01:51.298Z,15.45
2018-08-09T05:04:20.098Z,15.85
2018-08-09T05:06:48.769Z,16.35
2018-08-09T05:09:17.600Z,16.70
2018-08-09T05:11:46.297Z,15.95
2018-08-09T05:14:15.166Z,16.33
2018-08-09T05:16:43.886Z,15.43
2018-08-09T05:19:12.603Z,15.93
2018-08-09T05:21:41.378Z,16.23
2018-08-09T05:24:10.148Z,15.93
2018-08-09T05:26:38.839Z,16.60
2018-08-09T05:29:07.614Z,15.68
2018-08-09T05:31:36.379Z,14.75
2018-08-09T05:34:05.090Z,15.82
2018-08-09T05:36:33.750Z,15.25
2018-08-09T05:39:05.311Z,16.08
2018-08-09T05:41:34.125Z,15.57
2018-08-09T05:44:05.274Z,16.60
2018-08-09T05:46:34.020Z,14.63
2018-08-09T05:49:02.851Z,14.87
2018-08-09T05:51:31.674Z,14.60
2018-08-09T05:54:00.430Z,14.77
2018-08-09T05:56:29.104Z,14.55
2018-08-09T05:58:57.853Z,14.10
2018-08-09T06:01:26.626Z,15.07
2018-08-09T06:03:55.498Z,15.55
2018-08-09T06:06:24.270Z,15.00
2018-08-09T06:08:53.093Z,15.50
2018-08-09T06:11:22.422Z,14.85
2018-08-09T06:13:52.197Z,14.13
2018-08-09T06:16:22.778Z,15.05
2018-08-09T06:18:58.456Z,15.68
2018-08-09T06:21:27.138Z,15.50
2018-08-09T06:23:56.329Z,13.90
2018-08-09T06:26:25.173Z,13.77
2018-08-09T06:28:53.800Z,14.73
2018-08-09T06:31:22.659Z,14.60
2018-08-09T06:33:51.368Z,14.87
2018-08-09T06:36:20.103Z,13.23
2018-08-09T06:38:48.911Z,12.52
2018-08-09T06:41:17.720Z,13.52
2018-08-09T06:43:46.473Z,12.73
2018-08-09T06:46:15.258Z,12.20
2018-08-09T06:48:44.005Z,11.38
2018-08-09T06:51:12.782Z,12.80
2018-08-09T06:53:41.562Z,11.57
2018-08-09T06:56:10.282Z,11.52
2018-08-09T06:58:38.974Z,11.68
2018-08-09T07:01:07.760Z,9.95
2018-08-09T07:03:37.728Z,10.95
2018-08-09T07:06:06.543Z,10.10
2018-08-09T07:08:35.321Z,11.20
2018-08-09T07:11:04.078Z,11.50
2018-08-09T07:13:32.851Z,10.05
2018-08-09T07:16:01.645Z,10.10
2018-08-09T07:18:31.112Z,12.32
2018-08-09T07:20:59.842Z,10.45
2018-08-09T07:23:28.638Z,10.23
2018-08-09T07:25:57.450Z,9.90
2018-08-09T07:28:26.165Z,9.60
2018-08-09T07:30:55.004Z,10.13
2018-08-09T07:33:23.623Z,9.82
2018-08-09T07:35:52.436Z,11.40
2018-08-09T07:38:21.284Z,10.13
2018-08-09T07:40:50.441Z,11.38
2018-08-09T07:43:19.158Z,10.15
2018-08-09T07:45:47.921Z,10.93
2018-08-09T07:48:16.729Z,9.38
2018-08-09T07:50:45.450Z,11.43
2018-08-09T07:53:14.152Z,9.30
2018-08-09T07:55:43.020Z,9.63
2018-08-09T07:58:11.709Z,8.65
2018-08-09T08:00:40.431Z,9.00
2018-08-09T08:03:09.207Z,7.78
2018-08-09T08:05:37.832Z,8.07
2018-08-09T08:08:06.555Z,8.32
2018-08-09T08:10:35.319Z,8.05
2018-08-09T08:13:04.172Z,8.27
2018-08-09T08:15:32.942Z,8.43
2018-08-09T08:18:01.970Z,8.63
2018-08-09T08:20:30.757Z,8.52
2018-08-09T08:22:59.552Z,8.15
2018-08-09T08:25:28.295Z,8.63
2018-08-09T08:27:57.123Z,8.43
2018-08-09T08:30:25.884Z,8.63
2018-08-09T08:32:54.610Z,9.20
2018-08-09T08:35:23.358Z,8.70
2018-08-09T08:37:52.129Z,7.55
2018-08-09T08:40:20.881Z,8.33
2018-08-09T08:42:49.631Z,9.52
2018-08-09T08:45:18.369Z,9.02
2018-08-09T08:47:47.162Z,9.15
2018-08-09T08:50:16.726Z,8.77
2018-08-09T08:52:45.549Z,7.53
2018-08-09T08:55:14.293Z,8.15
2018-08-09T08:57:43.017Z,7.60
2018-08-09T09:00:11.694Z,7.18
2018-08-09T09:02:40.420Z,7.43
2018-08-09T09:05:09.567Z,6.82
2018-08-09T09:07:42.200Z,7.18
2018-08-09T09:10:11.011Z,7.57
2018-08-09T09:12:39.859Z,6.57
2018-08-09T09:15:08.527Z,6.57
2018-08-09T09:17:38.352Z,7.25
2018-08-09T09:20:07.617Z,6.57
2018-08-09T09:22:36.461Z,7.45
2018-08-09T09:25:05.210Z,7.10
2018-08-09T09:27:33.923Z,7.47
2018-08-09T09:30:02.714Z,7.65
2018-08-09T09:32:31.402Z,7.55
2018-08-09T09:35:00.151Z,7.10
2018-08-09T09:37:28.978Z,7.22
2018-08-09T09:39:58.560Z,6.90
2018-08-09T09:42:27.262Z,7.12
2018-08-09T09:44:56.903Z,7.40
2018-08-09T09:47:25.580Z,6.95
2018-08-09T09:49:54.364Z,7.10
2018-08-09T09:52:23.137Z,7.20
2018-08-09T09:54:51.852Z,7.35
2018-08-09T09:57:20.564Z,6.75
2018-08-09T09:59:49.329Z,6.40
2018-08-09T10:02:18.165Z,6.87
2018-08-09T10:04:47.028Z,6.97
2018-08-09T10:07:15.820Z,6.62
2018-08-09T10:09:44.411Z,6.97
2018-08-09T10:12:14.778Z,7.20
2018-08-09T10:14:44.695Z,6.45
2018-08-09T10:17:15.084Z,6.93
2018-08-09T10:19:44.099Z,7.15
2018-08-09T10:22:13.274Z,6.87
2018-08-09T10:24:43.918Z,7.00
2018-08-09T10:27:12.687Z,7.07
2018-08-09T10:29:41.374Z,6.40
2018-08-09T10:32:10.201Z,6.65
2018-08-09T10:34:40.258Z,6.50
2018-08-09T10:37:09.272Z,7.20
2018-08-09T10:39:38.009Z,6.30
2018-08-09T10:42:06.741Z,5.97
2018-08-09T10:44:35.859Z,5.57
2018-08-09T10:47:04.602Z,5.80
2018-08-09T10:49:33.992Z,5.95
2018-08-09T10:52:02.736Z,5.85
2018-08-09T10:54:31.546Z,6.07
2018-08-09T10:57:00.326Z,5.47
2018-08-09T10:59:29.103Z,6.60
2018-08-09T11:01:57.825Z,6.47
2018-08-09T11:04:26.552Z,5.68
2018-08-09T11:06:57.742Z,5.47
2018-08-09T11:09:23.955Z,5.35
2018-08-09T11:11:52.633Z,4.95
2018-08-09T11:14:21.373Z,4.70
2018-08-09T11:16:51.120Z,5.07
2018-08-09T11:19:19.797Z,5.68
2018-08-09T11:21:48.587Z,5.72
2018-08-09T11:24:17.393Z,5.45
2018-08-09T11:26:46.181Z,4.80
2018-08-09T11:29:14.912Z,4.95
2018-08-09T11:31:43.633Z,5.28
2018-08-09T11:34:12.331Z,5.43
2018-08-09T11:36:41.070Z,5.07
2018-08-09T11:39:09.830Z,5.00
2018-08-09T11:41:38.598Z,4.60
2018-08-09T11:44:07.322Z,4.20
2018-08-09T11:46:36.942Z,5.20
2018-08-09T11:49:05.663Z,5.00
2018-08-09T11:51:34.379Z,5.20
2018-08-09T11:54:03.128Z,4.82
2018-08-09T11:56:31.921Z,6.22
2018-08-09T11:59:00.553Z,5.32
2018-08-09T12:01:29.249Z,5.18
2018-08-09T12:03:57.957Z,5.25
2018-08-09T12:06:26.654Z,4.78
2018-08-09T12:08:55.449Z,4.82
2018-08-09T12:11:24.247Z,4.70
2018-08-09T12:13:52.907Z,4.03
2018-08-09T12:16:21.600Z,4.40
2018-08-09T12:18:50.283Z,4.53
2018-08-09T12:21:19.077Z,4.70
2018-08-09T12:23:47.760Z,4.37
2018-08-09T12:26:24.166Z,4.18
2018-08-09T12:28:52.887Z,4.50
2018-08-09T12:31:21.606Z,4.30
2018-08-09T12:33:50.383Z,3.92
2018-08-09T12:36:19.146Z,4.60
2018-08-09T12:38:47.855Z,4.40
2018-08-09T12:41:16.591Z,4.28
2018-08-09T12:43:45.254Z,4.53
2018-08-09T12:46:14.021Z,4.22
2018-08-09T12:48:42.699Z,4.10
2018-08-09T12:51:11.434Z,3.78
2018-08-09T12:53:40.189Z,4.10
2018-08-09T12:56:08.972Z,3.60
2018-08-09T12:58:37.981Z,3.78
2018-08-09T13:01:06.672Z,3.73
2018-08-09T13:03:35.605Z,4.22
2018-08-09T13:06:04.332Z,4.20
2018-08-09T13:08:33.229Z,3.80
2018-08-09T13:11:02.004Z,3.95
2018-08-09T13:13:30.824Z,3.97
2018-08-09T13:15:59.573Z,3.85
2018-08-09T13:18:28.247Z,4.22
2018-08-09T13:21:04.674Z,3.78
2018-08-09T13:23:33.451Z,4.57
2018-08-09T13:26:02.301Z,4.03
2018-08-09T13:28:31.066Z,3.80
2018-08-09T13:30:59.825Z,3.92
2018-08-09T13:33:28.638Z,3.83
2018-08-09T13:35:57.459Z,4.22
2018-08-09T13:38:26.606Z,3.65
2018-08-09T13:40:57.109Z,3.67
2018-08-09T13:43:25.932Z,4.25
2018-08-09T13:45:55.669Z,3.75
2018-08-09T13:48:24.386Z,4.03
2018-08-09T13:50:53.333Z,3.75
2018-08-09T13:53:23.982Z,3.85
2018-08-09T13:55:53.520Z,3.67
2018-08-09T13:58:24.690Z,4.12
2018-08-09T14:00:57.331Z,3.80
2018-08-09T14:03:29.728Z,4.28
2018-08-09T14:06:02.166Z,4.07
2018-08-09T14:08:31.404Z,3.53
2018-08-09T14:11:00.097Z,3.55
2018-08-09T14:13:29.024Z,3.87
2018-08-09T14:15:57.694Z,4.00
2018-08-09T14:18:26.455Z,4.50
2018-08-09T14:20:55.236Z,3.55
2018-08-09T14:23:23.928Z,3.83
2018-08-09T14:25:52.657Z,4.00
2018-08-09T14:28:21.387Z,3.83
2018-08-09T14:30:50.936Z,3.70
2018-08-09T14:33:20.237Z,4.05
2018-08-09T14:35:49.041Z,3.97
2018-08-09T14:38:20.474Z,3.70
2018-08-09T14:40:49.489Z,3.33
2018-08-09T14:43:36.830Z,4.22
2018-08-09T14:46:05.554Z,3.72
2018-08-09T14:48:34.345Z,3.83
2018-08-09T14:51:03.013Z,3.70
2018-08-09T14:53:33.096Z,3.72
2018-08-09T14:56:01.887Z,3.70
2018-08-09T14:58:34.435Z,4.00
2018-08-09T15:01:03.205Z,4.10
2018-08-09T15:03:33.999Z,3.55
2018-08-09T15:06:02.853Z,3.45
2018-08-09T15:08:31.702Z,3.05
2018-08-09T15:16:53.672Z,3.37
2018-08-09T15:19:22.751Z,3.60
2018-08-09T15:21:52.047Z,3.40
2018-08-09T15:24:21.185Z,3.50
2018-08-09T15:29:45.268Z,3.50
2018-08-09T15:32:15.937Z,4.28
2018-08-09T15:34:44.878Z,3.62
2018-08-09T15:40:09.996Z,3.92
2018-08-09T15:42:45.987Z,3.60
2018-08-09T15:51:09.285Z,4.40
2018-08-09T15:53:38.137Z,3.90
2018-08-09T15:56:06.941Z,4.57
2018-08-09T15:58:36.840Z,3.60
2018-08-09T16:01:12.795Z,4.32
2018-08-09T16:03:41.553Z,3.80
2018-08-09T16:06:10.509Z,4.20
2018-08-09T16:08:53.697Z,3.90
2018-08-09T16:11:19.201Z,3.80
2018-08-09T16:13:47.939Z,4.37
2018-08-09T16:16:17.874Z,4.60
2018-08-09T16:18:46.601Z,4.57
2018-08-09T16:21:15.350Z,4.20
2018-08-09T16:23:44.102Z,3.90
2018-08-09T16:26:12.845Z,4.28
2018-08-09T16:28:41.634Z,4.32
2018-08-09T16:31:10.437Z,4.25
2018-08-09T16:33:39.309Z,4.28
2018-08-09T16:36:08.124Z,4.30
2018-08-09T16:38:40.097Z,6.00
2018-08-09T16:41:09.215Z,6.37
2018-08-09T16:43:41.250Z,6.00
2018-08-09T16:46:09.866Z,5.90
2018-08-09T16:48:38.862Z,6.07
2018-08-09T16:51:09.154Z,5.73
2018-08-09T16:53:39.324Z,5.90
2018-08-09T16:56:08.307Z,4.95
2018-08-09T16:58:39.785Z,5.00
2018-08-09T17:01:18.781Z,5.07
2018-08-09T17:03:50.166Z,5.30
2018-08-09T17:06:20.420Z,4.68
2018-08-09T17:08:49.490Z,5.00
2018-08-09T17:11:18.525Z,6.30
2018-08-09T17:13:47.957Z,6.47
2018-08-09T17:16:17.632Z,6.03
2018-08-09T17:18:46.535Z,5.75
2018-08-09T17:21:18.097Z,5.95
2018-08-09T17:23:48.357Z,6.10
2018-08-09T17:26:21.824Z,5.47
2018-08-09T17:28:54.782Z,6.00
2018-08-09T17:31:30.390Z,6.85
2018-08-09T17:33:59.180Z,6.05
2018-08-09T17:36:27.782Z,6.47
2018-08-09T17:38:58.852Z,5.65
2018-08-09T17:41:30.974Z,4.15
2018-08-09T17:44:05.965Z,4.95
2018-08-09T17:46:34.435Z,4.78
2018-08-09T17:49:06.320Z,4.97
2018-08-09T17:51:34.855Z,5.35
2018-08-09T17:54:03.558Z,4.50
2018-08-09T17:56:32.279Z,4.70
2018-08-09T17:59:00.932Z,4.50
2018-08-09T18:01:29.560Z,3.83
2018-08-09T18:03:58.208Z,4.53
2018-08-09T18:06:27.063Z,4.40
2018-08-09T18:09:02.216Z,3.90
2018-08-09T18:11:31.831Z,4.37
2018-08-09T18:14:00.504Z,3.63
2018-08-09T18:16:40.297Z,3.77
2018-08-09T18:19:10.541Z,3.00
2018-08-09T18:21:42.237Z,3.80
2018-08-09T18:24:12.392Z,3.25
2018-08-09T18:26:48.169Z,3.97
2018-08-09T18:29:20.520Z,3.53
2018-08-09T18:31:53.020Z,3.28
2018-08-09T18:34:31.209Z,3.58
2018-08-09T18:37:01.829Z,4.22
2018-08-09T18:39:33.403Z,3.85
2018-08-09T18:42:05.089Z,3.33
2018-08-09T18:44:36.478Z,3.30
2018-08-09T18:47:06.292Z,3.95
2018-08-09T18:49:38.359Z,3.55
2018-08-09T18:52:07.568Z,3.50
2018-08-09T18:54:36.390Z,3.30
2018-08-09T18:57:07.674Z,3.65
2018-08-09T19:02:26.729Z,3.65
2018-08-09T19:04:58.398Z,3.62
2018-08-09T19:07:29.760Z,3.87
2018-08-09T19:10:01.486Z,4.10
2018-08-09T19:12:35.379Z,3.78
2018-08-09T19:15:08.432Z,4.25
2018-08-09T19:17:37.447Z,3.75
2018-08-09T19:20:06.378Z,4.03
2018-08-09T19:22:35.856Z,4.18
2018-08-09T19:25:06.189Z,4.25
2018-08-09T19:27:36.032Z,4.40
2018-08-09T19:30:07.156Z,4.22
2018-08-09T19:35:26.751Z,4.37
2018-08-09T19:37:58.867Z,5.30
2018-08-09T19:40:25.727Z,5.03
2018-08-09T19:42:56.004Z,7.22
2018-08-09T19:45:27.576Z,8.48
2018-08-09T19:47:57.717Z,6.57
2018-08-09T19:50:29.377Z,4.75
2018-08-09T19:52:58.950Z,4.57
2018-08-09T19:55:29.288Z,4.40
2018-08-09T19:58:00.672Z,4.20
2018-08-09T20:00:31.959Z,4.65
2018-08-09T20:03:01.273Z,4.87
2018-08-09T20:05:38.156Z,4.28
2018-08-09T20:08:07.027Z,4.18
2018-08-09T20:10:38.285Z,3.78
2018-08-09T20:13:10.203Z,3.30
2018-08-09T20:15:39.850Z,3.87
2018-08-09T20:18:08.503Z,4.05
2018-08-09T20:26:14.394Z,3.53
2018-08-09T20:28:44.117Z,3.62
2018-08-09T20:31:12.752Z,3.67
2018-08-09T20:33:41.475Z,4.10
2018-08-09T20:36:10.097Z,3.90
2018-08-09T20:38:38.725Z,3.45
2018-08-09T20:41:07.517Z,3.42
2018-08-09T20:43:37.173Z,2.80
2018-08-09T20:46:05.837Z,2.67
2018-08-09T20:48:34.458Z,2.25
2018-08-09T20:51:07.802Z,1.90
2018-08-09T20:53:36.464Z,2.30
2018-08-09T20:56:15.561Z,1.75
2018-08-09T20:58:51.758Z,2.00
2018-08-09T21:03:45.226Z,1.98
2018-08-09T21:06:15.546Z,2.20
2018-08-09T21:08:44.570Z,1.85
2018-08-09T21:11:13.099Z,1.90
2018-08-09T21:13:41.936Z,1.60
2018-08-09T21:16:10.606Z,1.62
2018-08-09T21:18:39.612Z,1.40
2018-08-09T21:21:08.824Z,1.70
2018-08-09T21:23:40.682Z,1.58
2018-08-09T21:26:09.356Z,1.90
2018-08-09T21:28:38.179Z,1.45
2018-08-09T21:31:07.363Z,1.40
2018-08-09T21:33:35.997Z,1.55
2018-08-09T21:36:18.061Z,1.40
2018-08-09T21:44:22.118Z,1.55
2018-08-09T21:49:47.693Z,2.00
2018-08-09T21:52:19.153Z,1.87
2018-08-09T21:57:37.823Z,1.40
2018-08-09T22:00:06.788Z,1.80
2018-08-09T22:02:35.839Z,1.50
2018-08-09T22:05:04.927Z,1.55
2018-08-09T22:07:39.882Z,1.75
2018-08-09T22:10:11.361Z,1.73
2018-08-09T22:12:46.240Z,1.52
2018-08-09T22:15:21.288Z,1.80
2018-08-09T22:18:05.016Z,1.77
2018-08-09T22:20:43.174Z,1.62
2018-08-09T22:23:12.380Z,1.65
2018-08-09T22:28:33.715Z,1.70
2018-08-09T22:31:02.725Z,1.85
2018-08-09T22:33:31.704Z,1.70
2018-08-09T22:36:00.742Z,1.60
2018-08-09T22:38:29.885Z,1.40
2018-08-09T22:40:58.843Z,2.03
2018-08-09T22:43:28.018Z,1.70
2018-08-09T22:45:59.211Z,1.50
2018-08-09T22:48:28.363Z,1.77
2018-08-09T22:50:57.355Z,1.55
2018-08-09T22:53:26.413Z,1.75
2018-08-09T22:55:55.571Z,1.60
2018-08-09T22:58:24.441Z,1.65
2018-08-09T23:00:53.417Z,1.73
2018-08-09T23:03:22.242Z,1.62
2018-08-09T23:05:51.118Z,1.87
2018-08-09T23:08:19.954Z,1.65
2018-08-09T23:10:49.116Z,1.70
2018-08-09T23:16:06.569Z,1.70
2018-08-09T23:18:51.986Z,1.35
2018-08-09T23:21:37.762Z,1.83
2018-08-09T23:24:06.664Z,2.03
2018-08-09T23:26:35.766Z,1.70
2018-08-09T23:29:05.773Z,1.67
2018-08-09T23:31:34.791Z,1.83
2018-08-09T23:34:03.857Z,2.03
2018-08-09T23:36:32.803Z,1.62
2018-08-09T23:39:01.778Z,1.70
2018-08-09T23:41:30.726Z,1.60
2018-08-09T23:49:34.985Z,1.70
2018-08-09T23:52:04.229Z,1.90
2018-08-09T23:54:33.050Z,1.48
2018-08-09T23:57:01.681Z,1.62
2018-08-09T23:59:30.320Z,1.95
